Otisco, Minnesota
Current Conditions -  °F | °C
As of 12:54 PM on Tuesday 27 Jan 2015 (Local Time) from KACQ Reporting Station
Overcast Overcast  
Wind Chill: 29°   Ceiling: 1700
Heat Index: 34°   Visibility: 10mi
Dew Point: 30°   Wind: 6mph
Humidity: 87%   Direction: 120°ESE
Pressure: 30.17"   Gusts: NA
Location:  44.0806°N, 93.5062°W
Report Text: KACQ 271854Z AUTO 12005KT 10SM OVC017 01/M01 A3017 RMK AO2
Loading
Personal Weather Stations






























Interactive Weather Map New forecast layout! Learn more

10-Day Weather Forecast

Advertisements
Track Severe Weather on mobile